sensor_id;sensor_type;location;lat;lon;timestamp;P1;durP1;ratioP1;P2;durP2;ratioP2
44728;SDS011;30457;53.590;9.922;2024-03-08T00:02:20;17.38;;;8.85;;
44728;SDS011;30457;53.590;9.922;2024-03-08T00:06:45;16.95;;;8.85;;
44728;SDS011;30457;53.590;9.922;2024-03-08T00:11:11;14.35;;;8.32;;
44728;SDS011;30457;53.590;9.922;2024-03-08T00:15:36;19.27;;;9.65;;
44728;SDS011;30457;53.590;9.922;2024-03-08T00:20:02;15.45;;;8.63;;
44728;SDS011;30457;53.590;9.922;2024-03-08T00:24:33;16.73;;;8.85;;
44728;SDS011;30457;53.590;9.922;2024-03-08T00:28:58;15.65;;;8.98;;
44728;SDS011;30457;53.590;9.922;2024-03-08T00:33:24;18.05;;;8.55;;
44728;SDS011;30457;53.590;9.922;2024-03-08T00:37:49;16.88;;;9.05;;
44728;SDS011;30457;53.590;9.922;2024-03-08T00:42:15;16.45;;;8.57;;
44728;SDS011;30457;53.590;9.922;2024-03-08T00:46:41;15.20;;;8.32;;
44728;SDS011;30457;53.590;9.922;2024-03-08T00:51:08;15.15;;;8.10;;
44728;SDS011;30457;53.590;9.922;2024-03-08T00:55:33;13.80;;;8.48;;
44728;SDS011;30457;53.590;9.922;2024-03-08T00:59:59;16.80;;;8.10;;
44728;SDS011;30457;53.590;9.922;2024-03-08T01:04:25;14.68;;;8.52;;
44728;SDS011;30457;53.590;9.922;2024-03-08T01:08:53;14.80;;;7.90;;
44728;SDS011;30457;53.590;9.922;2024-03-08T01:13:19;14.98;;;8.02;;
44728;SDS011;30457;53.590;9.922;2024-03-08T01:17:45;17.23;;;8.82;;
44728;SDS011;30457;53.590;9.922;2024-03-08T01:22:11;13.52;;;8.13;;
44728;SDS011;30457;53.590;9.922;2024-03-08T01:26:37;22.38;;;9.32;;
44728;SDS011;30457;53.590;9.922;2024-03-08T01:31:03;15.38;;;7.60;;
44728;SDS011;30457;53.590;9.922;2024-03-08T01:35:29;16.90;;;8.68;;
44728;SDS011;30457;53.590;9.922;2024-03-08T01:39:55;15.63;;;8.30;;
44728;SDS011;30457;53.590;9.922;2024-03-08T01:44:21;14.68;;;8.75;;
44728;SDS011;30457;53.590;9.922;2024-03-08T01:48:46;14.63;;;8.40;;
44728;SDS011;30457;53.590;9.922;2024-03-08T01:53:13;18.60;;;8.85;;
44728;SDS011;30457;53.590;9.922;2024-03-08T01:57:40;12.70;;;7.90;;
44728;SDS011;30457;53.590;9.922;2024-03-08T02:02:06;13.60;;;7.97;;
44728;SDS011;30457;53.590;9.922;2024-03-08T02:06:36;16.20;;;7.93;;
44728;SDS011;30457;53.590;9.922;2024-03-08T02:11:03;14.70;;;8.48;;
44728;SDS011;30457;53.590;9.922;2024-03-08T02:20:28;15.25;;;8.32;;
44728;SDS011;30457;53.590;9.922;2024-03-08T02:24:55;19.23;;;9.50;;
44728;SDS011;30457;53.590;9.922;2024-03-08T02:29:20;20.30;;;8.30;;
44728;SDS011;30457;53.590;9.922;2024-03-08T02:33:46;15.35;;;8.40;;
44728;SDS011;30457;53.590;9.922;2024-03-08T02:38:12;18.02;;;8.75;;
44728;SDS011;30457;53.590;9.922;2024-03-08T02:42:42;17.63;;;8.80;;
44728;SDS011;30457;53.590;9.922;2024-03-08T02:47:08;14.57;;;8.70;;
44728;SDS011;30457;53.590;9.922;2024-03-08T02:51:33;19.33;;;9.48;;
44728;SDS011;30457;53.590;9.922;2024-03-08T02:56:00;14.07;;;8.23;;
44728;SDS011;30457;53.590;9.922;2024-03-08T03:00:25;17.75;;;8.35;;
44728;SDS011;30457;53.590;9.922;2024-03-08T03:04:52;15.13;;;8.23;;
44728;SDS011;30457;53.590;9.922;2024-03-08T03:09:17;15.00;;;8.02;;
44728;SDS011;30457;53.590;9.922;2024-03-08T03:13:48;18.10;;;8.45;;
44728;SDS011;30457;53.590;9.922;2024-03-08T03:18:14;20.33;;;9.25;;
44728;SDS011;30457;53.590;9.922;2024-03-08T03:22:40;14.50;;;8.27;;
44728;SDS011;30457;53.590;9.922;2024-03-08T03:27:06;16.40;;;8.40;;
44728;SDS011;30457;53.590;9.922;2024-03-08T03:31:35;22.33;;;8.80;;
44728;SDS011;30457;53.590;9.922;2024-03-08T03:36:01;12.30;;;7.20;;
44728;SDS011;30457;53.590;9.922;2024-03-08T03:40:28;12.80;;;6.72;;
44728;SDS011;30457;53.590;9.922;2024-03-08T03:44:54;12.63;;;7.55;;
44728;SDS011;30457;53.590;9.922;2024-03-08T03:53:52;14.73;;;7.93;;
44728;SDS011;30457;53.590;9.922;2024-03-08T03:58:18;13.43;;;7.78;;
44728;SDS011;30457;53.590;9.922;2024-03-08T04:02:47;18.05;;;9.60;;
44728;SDS011;30457;53.590;9.922;2024-03-08T04:07:13;17.30;;;8.18;;
44728;SDS011;30457;53.590;9.922;2024-03-08T04:11:39;13.95;;;7.50;;
44728;SDS011;30457;53.590;9.922;2024-03-08T04:16:05;17.50;;;8.95;;
44728;SDS011;30457;53.590;9.922;2024-03-08T04:20:33;18.85;;;9.75;;
44728;SDS011;30457;53.590;9.922;2024-03-08T04:24:58;16.20;;;8.55;;
44728;SDS011;30457;53.590;9.922;2024-03-08T04:29:24;15.65;;;8.18;;
44728;SDS011;30457;53.590;9.922;2024-03-08T04:33:50;15.02;;;9.20;;
44728;SDS011;30457;53.590;9.922;2024-03-08T04:38:15;17.52;;;8.65;;
44728;SDS011;30457;53.590;9.922;2024-03-08T04:42:43;16.30;;;8.73;;
44728;SDS011;30457;53.590;9.922;2024-03-08T04:47:09;12.98;;;7.75;;
44728;SDS011;30457;53.590;9.922;2024-03-08T04:51:36;14.85;;;8.50;;
44728;SDS011;30457;53.590;9.922;2024-03-08T04:56:02;16.75;;;8.82;;
44728;SDS011;30457;53.590;9.922;2024-03-08T05:00:31;19.67;;;8.60;;
44728;SDS011;30457;53.590;9.922;2024-03-08T05:04:57;17.33;;;8.82;;
44728;SDS011;30457;53.590;9.922;2024-03-08T05:09:23;20.67;;;9.15;;
44728;SDS011;30457;53.590;9.922;2024-03-08T05:13:48;14.63;;;8.52;;
44728;SDS011;30457;53.590;9.922;2024-03-08T05:18:14;16.23;;;8.18;;
44728;SDS011;30457;53.590;9.922;2024-03-08T05:22:40;17.05;;;8.57;;
44728;SDS011;30457;53.590;9.922;2024-03-08T05:27:05;18.63;;;8.95;;
44728;SDS011;30457;53.590;9.922;2024-03-08T05:31:35;15.35;;;7.65;;
44728;SDS011;30457;53.590;9.922;2024-03-08T05:36:09;17.30;;;8.57;;
44728;SDS011;30457;53.590;9.922;2024-03-08T05:40:36;17.17;;;8.05;;
44728;SDS011;30457;53.590;9.922;2024-03-08T05:45:05;18.92;;;8.65;;
44728;SDS011;30457;53.590;9.922;2024-03-08T05:49:34;14.63;;;7.40;;
44728;SDS011;30457;53.590;9.922;2024-03-08T05:54:01;15.57;;;8.57;;
44728;SDS011;30457;53.590;9.922;2024-03-08T05:58:28;22.90;;;9.57;;
44728;SDS011;30457;53.590;9.922;2024-03-08T06:02:55;18.30;;;9.52;;
44728;SDS011;30457;53.590;9.922;2024-03-08T06:07:20;16.35;;;8.80;;
44728;SDS011;30457;53.590;9.922;2024-03-08T06:11:46;16.98;;;7.55;;
44728;SDS011;30457;53.590;9.922;2024-03-08T06:16:11;15.27;;;7.70;;
44728;SDS011;30457;53.590;9.922;2024-03-08T06:20:37;18.77;;;9.15;;
44728;SDS011;30457;53.590;9.922;2024-03-08T06:25:03;15.93;;;9.07;;
44728;SDS011;30457;53.590;9.922;2024-03-08T06:29:28;15.07;;;8.07;;
44728;SDS011;30457;53.590;9.922;2024-03-08T06:33:54;16.75;;;8.23;;
44728;SDS011;30457;53.590;9.922;2024-03-08T06:38:20;18.13;;;9.73;;
44728;SDS011;30457;53.590;9.922;2024-03-08T06:42:45;17.27;;;9.15;;
44728;SDS011;30457;53.590;9.922;2024-03-08T06:47:12;18.35;;;10.10;;
44728;SDS011;30457;53.590;9.922;2024-03-08T06:51:37;17.67;;;7.97;;
44728;SDS011;30457;53.590;9.922;2024-03-08T06:56:03;18.35;;;9.43;;
44728;SDS011;30457;53.590;9.922;2024-03-08T07:00:28;20.48;;;10.13;;
44728;SDS011;30457;53.590;9.922;2024-03-08T07:04:55;19.75;;;10.15;;
44728;SDS011;30457;53.590;9.922;2024-03-08T07:09:21;20.77;;;10.95;;
44728;SDS011;30457;53.590;9.922;2024-03-08T07:13:46;18.10;;;9.65;;
44728;SDS011;30457;53.590;9.922;2024-03-08T07:18:12;22.20;;;10.95;;
44728;SDS011;30457;53.590;9.922;2024-03-08T07:22:40;20.58;;;10.05;;
44728;SDS011;30457;53.590;9.922;2024-03-08T07:27:05;22.85;;;11.20;;
44728;SDS011;30457;53.590;9.922;2024-03-08T07:31:31;22.30;;;10.20;;
44728;SDS011;30457;53.590;9.922;2024-03-08T07:36:09;20.92;;;11.27;;
44728;SDS011;30457;53.590;9.922;2024-03-08T07:40:36;24.88;;;11.90;;
44728;SDS011;30457;53.590;9.922;2024-03-08T07:45:05;22.38;;;11.25;;
44728;SDS011;30457;53.590;9.922;2024-03-08T07:49:33;24.92;;;12.02;;
44728;SDS011;30457;53.590;9.922;2024-03-08T07:53:59;21.27;;;11.88;;
44728;SDS011;30457;53.590;9.922;2024-03-08T07:58:25;22.58;;;10.10;;
44728;SDS011;30457;53.590;9.922;2024-03-08T08:02:50;20.02;;;10.18;;
44728;SDS011;30457;53.590;9.922;2024-03-08T08:07:16;21.63;;;10.98;;
44728;SDS011;30457;53.590;9.922;2024-03-08T08:11:41;26.13;;;12.35;;
44728;SDS011;30457;53.590;9.922;2024-03-08T08:16:10;24.90;;;12.13;;
44728;SDS011;30457;53.590;9.922;2024-03-08T08:20:35;23.80;;;12.48;;
44728;SDS011;30457;53.590;9.922;2024-03-08T08:25:01;26.80;;;12.30;;
44728;SDS011;30457;53.590;9.922;2024-03-08T08:29:26;22.10;;;12.05;;
44728;SDS011;30457;53.590;9.922;2024-03-08T08:33:52;22.10;;;12.80;;
44728;SDS011;30457;53.590;9.922;2024-03-08T08:38:23;22.20;;;11.48;;
44728;SDS011;30457;53.590;9.922;2024-03-08T08:42:49;25.02;;;12.82;;
44728;SDS011;30457;53.590;9.922;2024-03-08T08:47:15;23.33;;;12.45;;
44728;SDS011;30457;53.590;9.922;2024-03-08T08:51:48;24.25;;;12.35;;
44728;SDS011;30457;53.590;9.922;2024-03-08T08:56:17;25.38;;;12.57;;
44728;SDS011;30457;53.590;9.922;2024-03-08T09:00:43;21.50;;;12.07;;
44728;SDS011;30457;53.590;9.922;2024-03-08T09:05:09;22.50;;;12.13;;
44728;SDS011;30457;53.590;9.922;2024-03-08T09:09:36;25.08;;;12.43;;
44728;SDS011;30457;53.590;9.922;2024-03-08T09:14:02;24.65;;;12.50;;
44728;SDS011;30457;53.590;9.922;2024-03-08T09:18:28;20.13;;;12.15;;
44728;SDS011;30457;53.590;9.922;2024-03-08T09:22:54;24.88;;;13.75;;
44728;SDS011;30457;53.590;9.922;2024-03-08T09:27:19;37.67;;;13.38;;
44728;SDS011;30457;53.590;9.922;2024-03-08T09:31:45;21.63;;;11.55;;
44728;SDS011;30457;53.590;9.922;2024-03-08T09:36:11;24.83;;;13.18;;
44728;SDS011;30457;53.590;9.922;2024-03-08T09:40:37;21.13;;;12.30;;
44728;SDS011;30457;53.590;9.922;2024-03-08T09:45:10;22.15;;;12.35;;
44728;SDS011;30457;53.590;9.922;2024-03-08T09:49:36;23.90;;;13.00;;
44728;SDS011;30457;53.590;9.922;2024-03-08T09:54:02;22.77;;;11.70;;
44728;SDS011;30457;53.590;9.922;2024-03-08T09:58:30;24.85;;;12.63;;
44728;SDS011;30457;53.590;9.922;2024-03-08T10:03:02;21.95;;;12.70;;
44728;SDS011;30457;53.590;9.922;2024-03-08T10:07:28;25.48;;;12.73;;
44728;SDS011;30457;53.590;9.922;2024-03-08T10:11:57;23.73;;;12.25;;
44728;SDS011;30457;53.590;9.922;2024-03-08T10:16:23;22.20;;;12.23;;
44728;SDS011;30457;53.590;9.922;2024-03-08T10:21:02;24.35;;;13.30;;
44728;SDS011;30457;53.590;9.922;2024-03-08T10:25:32;25.95;;;12.57;;
44728;SDS011;30457;53.590;9.922;2024-03-08T10:29:58;19.95;;;11.18;;
44728;SDS011;30457;53.590;9.922;2024-03-08T10:34:23;22.75;;;12.27;;
44728;SDS011;30457;53.590;9.922;2024-03-08T10:38:51;24.52;;;12.45;;
44728;SDS011;30457;53.590;9.922;2024-03-08T10:43:20;27.73;;;13.57;;
44728;SDS011;30457;53.590;9.922;2024-03-08T10:48:08;24.10;;;10.82;;
44728;SDS011;30457;53.590;9.922;2024-03-08T10:52:42;24.15;;;11.18;;
44728;SDS011;30457;53.590;9.922;2024-03-08T10:57:08;19.10;;;11.13;;
44728;SDS011;30457;53.590;9.922;2024-03-08T11:01:36;18.08;;;10.20;;
44728;SDS011;30457;53.590;9.922;2024-03-08T11:06:02;21.52;;;10.38;;
44728;SDS011;30457;53.590;9.922;2024-03-08T11:10:28;21.30;;;12.05;;
44728;SDS011;30457;53.590;9.922;2024-03-08T11:14:54;18.15;;;11.10;;
44728;SDS011;30457;53.590;9.922;2024-03-08T11:23:59;23.52;;;10.20;;
44728;SDS011;30457;53.590;9.922;2024-03-08T11:28:25;18.65;;;9.98;;
44728;SDS011;30457;53.590;9.922;2024-03-08T11:32:52;17.77;;;9.13;;
44728;SDS011;30457;53.590;9.922;2024-03-08T11:37:18;17.38;;;9.63;;
44728;SDS011;30457;53.590;9.922;2024-03-08T11:41:45;17.02;;;9.35;;
44728;SDS011;30457;53.590;9.922;2024-03-08T11:46:11;17.38;;;9.30;;
44728;SDS011;30457;53.590;9.922;2024-03-08T11:50:38;17.50;;;9.43;;
44728;SDS011;30457;53.590;9.922;2024-03-08T11:55:04;16.73;;;9.45;;
44728;SDS011;30457;53.590;9.922;2024-03-08T11:59:30;17.35;;;8.70;;
44728;SDS011;30457;53.590;9.922;2024-03-08T12:03:56;18.25;;;9.13;;
44728;SDS011;30457;53.590;9.922;2024-03-08T12:08:24;15.95;;;9.25;;
44728;SDS011;30457;53.590;9.922;2024-03-08T12:12:50;14.60;;;8.07;;
44728;SDS011;30457;53.590;9.922;2024-03-08T12:17:17;18.40;;;9.40;;
44728;SDS011;30457;53.590;9.922;2024-03-08T12:21:42;17.83;;;9.80;;
44728;SDS011;30457;53.590;9.922;2024-03-08T12:26:14;19.92;;;10.98;;
44728;SDS011;30457;53.590;9.922;2024-03-08T12:30:48;18.35;;;10.15;;
44728;SDS011;30457;53.590;9.922;2024-03-08T12:35:15;15.25;;;9.52;;
44728;SDS011;30457;53.590;9.922;2024-03-08T12:39:41;18.02;;;9.13;;
44728;SDS011;30457;53.590;9.922;2024-03-08T12:44:07;18.63;;;9.10;;
44728;SDS011;30457;53.590;9.922;2024-03-08T12:48:36;17.80;;;9.30;;
44728;SDS011;30457;53.590;9.922;2024-03-08T12:53:05;17.88;;;8.70;;
44728;SDS011;30457;53.590;9.922;2024-03-08T12:57:31;17.77;;;10.20;;
44728;SDS011;30457;53.590;9.922;2024-03-08T13:01:57;14.60;;;8.93;;
44728;SDS011;30457;53.590;9.922;2024-03-08T13:06:25;18.88;;;9.50;;
44728;SDS011;30457;53.590;9.922;2024-03-08T13:10:53;14.40;;;8.73;;
44728;SDS011;30457;53.590;9.922;2024-03-08T13:15:19;16.05;;;8.18;;
44728;SDS011;30457;53.590;9.922;2024-03-08T13:19:47;15.07;;;8.73;;
44728;SDS011;30457;53.590;9.922;2024-03-08T13:24:13;19.58;;;10.07;;
44728;SDS011;30457;53.590;9.922;2024-03-08T13:28:48;16.98;;;9.40;;
44728;SDS011;30457;53.590;9.922;2024-03-08T13:33:18;14.93;;;8.43;;
44728;SDS011;30457;53.590;9.922;2024-03-08T13:37:45;13.48;;;8.88;;
44728;SDS011;30457;53.590;9.922;2024-03-08T13:42:14;14.80;;;9.02;;
44728;SDS011;30457;53.590;9.922;2024-03-08T13:46:41;12.48;;;7.40;;
44728;SDS011;30457;53.590;9.922;2024-03-08T13:51:07;15.07;;;8.88;;
44728;SDS011;30457;53.590;9.922;2024-03-08T13:55:35;13.25;;;7.43;;
44728;SDS011;30457;53.590;9.922;2024-03-08T14:00:01;13.25;;;7.90;;
44728;SDS011;30457;53.590;9.922;2024-03-08T14:04:26;14.55;;;8.25;;
44728;SDS011;30457;53.590;9.922;2024-03-08T14:08:53;14.80;;;8.38;;
44728;SDS011;30457;53.590;9.922;2024-03-08T14:13:21;16.35;;;8.43;;
44728;SDS011;30457;53.590;9.922;2024-03-08T14:17:55;12.63;;;8.85;;
44728;SDS011;30457;53.590;9.922;2024-03-08T14:22:20;15.10;;;8.57;;
44728;SDS011;30457;53.590;9.922;2024-03-08T14:26:46;14.00;;;8.23;;
44728;SDS011;30457;53.590;9.922;2024-03-08T14:31:13;14.60;;;7.32;;
44728;SDS011;30457;53.590;9.922;2024-03-08T14:35:43;18.60;;;9.32;;
44728;SDS011;30457;53.590;9.922;2024-03-08T14:40:09;11.27;;;7.55;;
44728;SDS011;30457;53.590;9.922;2024-03-08T14:44:34;15.38;;;8.50;;
44728;SDS011;30457;53.590;9.922;2024-03-08T14:49:03;16.35;;;7.88;;
44728;SDS011;30457;53.590;9.922;2024-03-08T14:53:28;13.20;;;8.65;;
44728;SDS011;30457;53.590;9.922;2024-03-08T14:57:55;18.35;;;9.38;;
44728;SDS011;30457;53.590;9.922;2024-03-08T15:02:20;12.00;;;7.65;;
44728;SDS011;30457;53.590;9.922;2024-03-08T15:06:47;16.35;;;8.65;;
44728;SDS011;30457;53.590;9.922;2024-03-08T15:11:13;22.50;;;9.80;;
44728;SDS011;30457;53.590;9.922;2024-03-08T15:15:50;13.23;;;7.80;;
44728;SDS011;30457;53.590;9.922;2024-03-08T15:20:22;13.57;;;8.07;;
44728;SDS011;30457;53.590;9.922;2024-03-08T15:24:53;16.10;;;9.02;;
44728;SDS011;30457;53.590;9.922;2024-03-08T15:29:19;17.60;;;9.27;;
44728;SDS011;30457;53.590;9.922;2024-03-08T15:33:51;16.40;;;8.82;;
44728;SDS011;30457;53.590;9.922;2024-03-08T15:38:24;17.85;;;9.45;;
44728;SDS011;30457;53.590;9.922;2024-03-08T15:42:55;12.20;;;7.82;;
44728;SDS011;30457;53.590;9.922;2024-03-08T15:47:22;12.73;;;7.78;;
44728;SDS011;30457;53.590;9.922;2024-03-08T15:51:50;14.65;;;8.15;;
44728;SDS011;30457;53.590;9.922;2024-03-08T15:56:16;11.77;;;8.00;;
44728;SDS011;30457;53.590;9.922;2024-03-08T16:00:41;14.40;;;8.23;;
44728;SDS011;30457;53.590;9.922;2024-03-08T16:05:13;14.82;;;8.20;;
44728;SDS011;30457;53.590;9.922;2024-03-08T16:09:39;16.27;;;9.18;;
44728;SDS011;30457;53.590;9.922;2024-03-08T16:14:05;12.10;;;8.45;;
44728;SDS011;30457;53.590;9.922;2024-03-08T16:18:30;19.48;;;8.55;;
44728;SDS011;30457;53.590;9.922;2024-03-08T16:22:59;14.40;;;8.05;;
44728;SDS011;30457;53.590;9.922;2024-03-08T16:27:25;16.48;;;8.68;;
44728;SDS011;30457;53.590;9.922;2024-03-08T16:31:52;17.25;;;9.05;;
44728;SDS011;30457;53.590;9.922;2024-03-08T16:36:17;14.00;;;7.78;;
44728;SDS011;30457;53.590;9.922;2024-03-08T16:40:44;13.43;;;7.43;;
44728;SDS011;30457;53.590;9.922;2024-03-08T16:45:11;13.85;;;8.30;;
44728;SDS011;30457;53.590;9.922;2024-03-08T16:49:41;14.43;;;8.25;;
44728;SDS011;30457;53.590;9.922;2024-03-08T16:54:07;16.05;;;8.65;;
44728;SDS011;30457;53.590;9.922;2024-03-08T16:58:33;14.40;;;9.00;;
44728;SDS011;30457;53.590;9.922;2024-03-08T17:02:59;16.10;;;8.52;;
44728;SDS011;30457;53.590;9.922;2024-03-08T17:07:26;17.75;;;9.18;;
44728;SDS011;30457;53.590;9.922;2024-03-08T17:11:52;16.92;;;9.50;;
44728;SDS011;30457;53.590;9.922;2024-03-08T17:16:17;18.88;;;9.50;;
44728;SDS011;30457;53.590;9.922;2024-03-08T17:20:49;22.23;;;11.32;;
44728;SDS011;30457;53.590;9.922;2024-03-08T17:25:15;17.45;;;9.30;;
44728;SDS011;30457;53.590;9.922;2024-03-08T17:29:45;17.13;;;9.90;;
44728;SDS011;30457;53.590;9.922;2024-03-08T17:34:11;17.02;;;9.15;;
44728;SDS011;30457;53.590;9.922;2024-03-08T17:38:39;15.52;;;8.80;;
44728;SDS011;30457;53.590;9.922;2024-03-08T17:43:09;16.08;;;8.50;;
44728;SDS011;30457;53.590;9.922;2024-03-08T17:47:36;18.90;;;9.77;;
44728;SDS011;30457;53.590;9.922;2024-03-08T17:52:03;18.38;;;9.40;;
44728;SDS011;30457;53.590;9.922;2024-03-08T17:56:29;16.40;;;8.75;;
44728;SDS011;30457;53.590;9.922;2024-03-08T18:00:55;16.40;;;8.95;;
44728;SDS011;30457;53.590;9.922;2024-03-08T18:05:25;21.42;;;10.18;;
44728;SDS011;30457;53.590;9.922;2024-03-08T18:09:55;14.43;;;9.20;;
44728;SDS011;30457;53.590;9.922;2024-03-08T18:14:20;15.70;;;8.48;;
44728;SDS011;30457;53.590;9.922;2024-03-08T18:18:46;17.98;;;10.18;;
44728;SDS011;30457;53.590;9.922;2024-03-08T18:23:14;15.88;;;9.50;;
44728;SDS011;30457;53.590;9.922;2024-03-08T18:27:40;16.02;;;8.75;;
44728;SDS011;30457;53.590;9.922;2024-03-08T18:32:06;14.75;;;7.93;;
44728;SDS011;30457;53.590;9.922;2024-03-08T18:36:32;16.23;;;9.85;;
44728;SDS011;30457;53.590;9.922;2024-03-08T18:40:58;18.02;;;9.45;;
44728;SDS011;30457;53.590;9.922;2024-03-08T18:45:26;14.15;;;8.73;;
44728;SDS011;30457;53.590;9.922;2024-03-08T18:49:53;17.00;;;9.23;;
44728;SDS011;30457;53.590;9.922;2024-03-08T18:54:18;17.83;;;8.82;;
44728;SDS011;30457;53.590;9.922;2024-03-08T18:58:44;18.33;;;8.85;;
44728;SDS011;30457;53.590;9.922;2024-03-08T19:03:10;15.55;;;8.32;;
44728;SDS011;30457;53.590;9.922;2024-03-08T19:07:35;15.73;;;8.93;;
44728;SDS011;30457;53.590;9.922;2024-03-08T19:12:02;19.00;;;9.45;;
44728;SDS011;30457;53.590;9.922;2024-03-08T19:16:33;13.00;;;7.93;;
44728;SDS011;30457;53.590;9.922;2024-03-08T19:21:05;18.02;;;8.10;;
44728;SDS011;30457;53.590;9.922;2024-03-08T19:25:33;16.80;;;9.00;;
44728;SDS011;30457;53.590;9.922;2024-03-08T19:30:00;16.00;;;8.57;;
44728;SDS011;30457;53.590;9.922;2024-03-08T19:34:25;16.15;;;8.85;;
44728;SDS011;30457;53.590;9.922;2024-03-08T19:38:52;19.50;;;9.40;;
44728;SDS011;30457;53.590;9.922;2024-03-08T19:43:18;17.10;;;10.15;;
44728;SDS011;30457;53.590;9.922;2024-03-08T19:47:45;19.30;;;9.38;;
44728;SDS011;30457;53.590;9.922;2024-03-08T19:52:11;18.42;;;9.15;;
44728;SDS011;30457;53.590;9.922;2024-03-08T19:56:36;17.80;;;9.50;;
44728;SDS011;30457;53.590;9.922;2024-03-08T20:01:02;15.95;;;8.80;;
44728;SDS011;30457;53.590;9.922;2024-03-08T20:05:29;16.77;;;8.48;;
44728;SDS011;30457;53.590;9.922;2024-03-08T20:09:57;14.73;;;8.95;;
44728;SDS011;30457;53.590;9.922;2024-03-08T20:14:23;18.20;;;9.52;;
44728;SDS011;30457;53.590;9.922;2024-03-08T20:18:50;13.90;;;9.10;;
44728;SDS011;30457;53.590;9.922;2024-03-08T20:23:16;12.63;;;8.32;;
44728;SDS011;30457;53.590;9.922;2024-03-08T20:27:41;17.05;;;8.88;;
44728;SDS011;30457;53.590;9.922;2024-03-08T20:32:14;16.95;;;8.82;;
44728;SDS011;30457;53.590;9.922;2024-03-08T20:36:40;16.88;;;9.00;;
44728;SDS011;30457;53.590;9.922;2024-03-08T20:41:07;17.95;;;9.75;;
44728;SDS011;30457;53.590;9.922;2024-03-08T20:45:34;17.83;;;9.20;;
44728;SDS011;30457;53.590;9.922;2024-03-08T20:49:59;19.08;;;9.50;;
44728;SDS011;30457;53.590;9.922;2024-03-08T20:54:25;16.98;;;8.25;;
44728;SDS011;30457;53.590;9.922;2024-03-08T20:58:50;17.05;;;8.65;;
44728;SDS011;30457;53.590;9.922;2024-03-08T21:03:17;26.98;;;10.05;;
44728;SDS011;30457;53.590;9.922;2024-03-08T21:07:44;14.68;;;8.30;;
44728;SDS011;30457;53.590;9.922;2024-03-08T21:12:10;18.90;;;9.32;;
44728;SDS011;30457;53.590;9.922;2024-03-08T21:16:38;17.50;;;9.52;;
44728;SDS011;30457;53.590;9.922;2024-03-08T21:21:06;17.63;;;8.68;;
44728;SDS011;30457;53.590;9.922;2024-03-08T21:25:32;19.45;;;9.93;;
44728;SDS011;30457;53.590;9.922;2024-03-08T21:29:59;19.15;;;10.02;;
44728;SDS011;30457;53.590;9.922;2024-03-08T21:34:24;17.38;;;8.55;;
44728;SDS011;30457;53.590;9.922;2024-03-08T21:38:50;19.50;;;8.23;;
44728;SDS011;30457;53.590;9.922;2024-03-08T21:43:17;17.67;;;9.55;;
44728;SDS011;30457;53.590;9.922;2024-03-08T21:47:43;20.30;;;9.95;;
44728;SDS011;30457;53.590;9.922;2024-03-08T21:52:09;16.83;;;9.05;;
44728;SDS011;30457;53.590;9.922;2024-03-08T21:56:35;18.70;;;8.98;;
44728;SDS011;30457;53.590;9.922;2024-03-08T22:01:02;15.38;;;8.07;;
44728;SDS011;30457;53.590;9.922;2024-03-08T22:05:29;16.90;;;9.07;;
44728;SDS011;30457;53.590;9.922;2024-03-08T22:09:55;15.50;;;8.70;;
44728;SDS011;30457;53.590;9.922;2024-03-08T22:14:21;15.30;;;8.73;;
44728;SDS011;30457;53.590;9.922;2024-03-08T22:18:49;17.23;;;8.80;;
44728;SDS011;30457;53.590;9.922;2024-03-08T22:23:15;17.58;;;8.07;;
44728;SDS011;30457;53.590;9.922;2024-03-08T22:27:43;16.95;;;9.85;;
44728;SDS011;30457;53.590;9.922;2024-03-08T22:32:09;16.13;;;8.38;;
44728;SDS011;30457;53.590;9.922;2024-03-08T22:36:36;18.58;;;9.73;;
44728;SDS011;30457;53.590;9.922;2024-03-08T22:41:02;15.57;;;8.40;;
44728;SDS011;30457;53.590;9.922;2024-03-08T22:45:28;18.63;;;9.18;;
44728;SDS011;30457;53.590;9.922;2024-03-08T22:49:54;17.00;;;9.32;;
44728;SDS011;30457;53.590;9.922;2024-03-08T22:54:20;15.90;;;9.30;;
44728;SDS011;30457;53.590;9.922;2024-03-08T22:58:48;19.05;;;10.57;;
44728;SDS011;30457;53.590;9.922;2024-03-08T23:03:14;19.10;;;10.30;;
44728;SDS011;30457;53.590;9.922;2024-03-08T23:07:42;19.55;;;9.60;;
44728;SDS011;30457;53.590;9.922;2024-03-08T23:12:08;19.83;;;10.10;;
44728;SDS011;30457;53.590;9.922;2024-03-08T23:16:37;15.85;;;9.00;;
44728;SDS011;30457;53.590;9.922;2024-03-08T23:21:03;16.58;;;8.60;;
44728;SDS011;30457;53.590;9.922;2024-03-08T23:25:32;19.00;;;9.13;;
44728;SDS011;30457;53.590;9.922;2024-03-08T23:30:00;15.73;;;9.00;;
44728;SDS011;30457;53.590;9.922;2024-03-08T23:34:26;18.55;;;9.50;;
44728;SDS011;30457;53.590;9.922;2024-03-08T23:38:52;18.95;;;9.07;;
44728;SDS011;30457;53.590;9.922;2024-03-08T23:43:18;19.27;;;9.95;;
44728;SDS011;30457;53.590;9.922;2024-03-08T23:47:47;18.90;;;9.25;;
44728;SDS011;30457;53.590;9.922;2024-03-08T23:52:14;18.17;;;9.73;;
44728;SDS011;30457;53.590;9.922;2024-03-08T23:56:40;18.92;;;9.80;;
